Time;durP1;ratioP1;P1;durP2;ratioP2;P2;SDS_P1;SDS_P2;PMS_P1;PMS_P2;Temp;Humidity;BMP_temperature;BMP_pressure;BME280_temperature;BME280_humidity;BME280_pressure;Samples;Min_cycle;Max_cycle;Signal;HPM_P1;HPM_P2
2023/09/19 00:00:27;;;;;;;;;;;16.90;99.90;;;;;;5083533;28;20191;-72
2023/09/19 00:02:54;;;;;;;;;;;16.90;99.90;;;;;;5084047;28;19927;-72
2023/09/19 00:05:23;;;;;;;;;;;16.90;99.90;;;;;;5083513;28;19924;-71
2023/09/19 00:07:51;;;;;;;;;;;16.90;99.90;;;;;;5083509;28;19920;-72
2023/09/19 00:10:20;;;;;;;;;;;16.90;99.90;;;;;;5083758;28;20118;-71
2023/09/19 00:12:46;;;;;;;;;;;16.90;99.90;;;;;;5083597;28;20214;-72
2023/09/19 00:15:13;;;;;;;;;;;16.80;99.90;;;;;;5083338;28;19920;-71
2023/09/19 00:17:40;;;;;;;;;;;16.80;99.90;;;;;;5078807;28;20289;-72
2023/09/19 00:20:12;;;;;;;;;;;16.80;99.90;;;;;;5083794;28;19921;-71
2023/09/19 00:22:42;;;;;;;;;;;16.80;99.90;;;;;;5078848;28;19926;-72
2023/09/19 00:25:09;;;;;;;;;;;16.80;99.90;;;;;;5083235;28;19958;-72
2023/09/19 00:27:38;;;;;;;;;;;16.70;99.90;;;;;;5083729;28;19928;-73
2023/09/19 00:30:07;;;;;;;;;;;16.70;99.90;;;;;;5083878;28;20129;-72
2023/09/19 00:32:34;;;;;;;;;;;16.70;99.90;;;;;;5083369;28;20380;-72
2023/09/19 00:35:01;;;;;;;;;;;16.70;99.90;;;;;;5084546;28;19920;-72
2023/09/19 00:37:27;;;;;;;;;;;16.60;99.90;;;;;;5084746;28;19920;-72
2023/09/19 00:39:55;;;;;;;;;;;16.60;99.90;;;;;;5083443;28;19920;-72
2023/09/19 00:42:22;;;;;;;;;;;16.60;99.90;;;;;;5087320;28;20257;-72
2023/09/19 00:44:50;;;;;;;;;;;16.50;99.90;;;;;;5082242;28;19988;-72
2023/09/19 00:47:18;;;;;;;;;;;16.60;99.90;;;;;;5083613;28;19924;-73
2023/09/19 00:49:44;;;;;;;;;;;16.60;99.90;;;;;;5089999;28;19928;-72
2023/09/19 00:52:12;;;;;;;;;;;16.60;99.90;;;;;;5083241;28;20151;-72
2023/09/19 00:54:38;;;;;;;;;;;16.60;99.90;;;;;;5082866;28;20183;-72
2023/09/19 00:57:07;;;;;;;;;;;16.60;99.90;;;;;;5084340;28;20254;-72
2023/09/19 00:59:35;;;;;;;;;;;16.60;99.90;;;;;;5087215;28;19926;-72
2023/09/19 01:02:03;;;;;;;;;;;16.60;99.90;;;;;;5087020;28;19926;-72
2023/09/19 01:04:29;;;;;;;;;;;16.60;99.90;;;;;;5086835;28;19920;-72
2023/09/19 01:06:57;;;;;;;;;;;16.60;99.90;;;;;;5087145;28;19921;-72
2023/09/19 01:09:24;;;;;;;;;;;16.60;99.90;;;;;;5087144;28;19921;-72
2023/09/19 01:11:54;;;;;;;;;;;16.60;99.90;;;;;;5087182;28;19920;-72
2023/09/19 01:14:29;;;;;;;;;;;16.60;99.90;;;;;;5086337;28;19955;-72
2023/09/19 01:16:59;;;;;;;;;;;16.60;99.90;;;;;;5086903;28;19955;-72
2023/09/19 01:19:45;;;;;;;;;;;16.60;99.90;;;;;;5086889;28;20253;-73
2023/09/19 01:22:14;;;;;;;;;;;16.60;99.90;;;;;;5086968;28;19956;-71
2023/09/19 01:24:55;;;;;;;;;;;16.60;99.90;;;;;;5081866;28;19960;-72
2023/09/19 01:27:43;;;;;;;;;;;16.60;99.90;;;;;;5084673;28;19991;-73
2023/09/19 01:30:14;;;;;;;;;;;16.60;99.90;;;;;;5086893;28;19963;-72
2023/09/19 01:32:43;;;;;;;;;;;16.60;99.90;;;;;;5085956;28;19924;-72
2023/09/19 01:35:12;;;;;;;;;;;16.70;99.90;;;;;;5086085;28;19978;-72
2023/09/19 01:37:39;;;;;;;;;;;16.60;99.90;;;;;;5081868;28;19920;-72
2023/09/19 01:40:16;;;;;;;;;;;16.70;99.90;;;;;;5086455;28;19983;-73
2023/09/19 01:42:45;;;;;;;;;;;16.70;99.90;;;;;;5081868;28;19928;-73
2023/09/19 01:45:15;;;;;;;;;;;16.70;99.90;;;;;;5084984;28;20271;-72
2023/09/19 01:47:44;;;;;;;;;;;16.70;99.90;;;;;;5081749;28;19921;-72
2023/09/19 01:50:19;;;;;;;;;;;16.70;99.90;;;;;;5089674;28;19928;-72
2023/09/19 01:52:48;;;;;;;;;;;16.70;99.90;;;;;;5082525;28;19920;-71
2023/09/19 01:55:17;;;;;;;;;;;16.70;99.90;;;;;;5085997;28;19966;-72
2023/09/19 01:57:49;;;;;;;;;;;16.70;99.90;;;;;;5090644;28;19927;-72
2023/09/19 02:00:18;;;;;;;;;;;16.60;99.90;;;;;;5082966;28;20122;-71
2023/09/19 02:02:45;;;;;;;;;;;16.60;99.90;;;;;;5085765;28;19962;-72
2023/09/19 02:05:12;;;;;;;;;;;16.60;99.90;;;;;;5085572;28;19967;-71
2023/09/19 02:07:40;;;;;;;;;;;16.60;99.90;;;;;;5085611;28;20001;-72
2023/09/19 02:10:09;;;;;;;;;;;16.60;99.90;;;;;;5085052;28;19920;-72
2023/09/19 02:12:36;;;;;;;;;;;16.60;99.90;;;;;;5094547;28;19921;-71
2023/09/19 02:15:03;;;;;;;;;;;16.60;99.90;;;;;;5085552;28;19920;-73
2023/09/19 02:17:31;;;;;;;;;;;16.50;99.90;;;;;;5085409;28;20236;-72
2023/09/19 02:19:58;;;;;;;;;;;16.50;99.90;;;;;;5085488;28;19952;-73
2023/09/19 02:22:25;;;;;;;;;;;16.40;99.90;;;;;;5085895;28;19920;-73
2023/09/19 02:24:52;;;;;;;;;;;16.40;99.90;;;;;;5090368;28;19920;-73
2023/09/19 02:27:19;;;;;;;;;;;16.50;99.90;;;;;;5092449;28;19977;-73
2023/09/19 02:29:46;;;;;;;;;;;16.50;99.90;;;;;;5089903;28;19983;-71
2023/09/19 02:32:12;;;;;;;;;;;16.40;99.90;;;;;;5083988;28;19983;-72
2023/09/19 02:34:41;;;;;;;;;;;16.40;99.90;;;;;;5082772;28;19921;-73
2023/09/19 02:37:08;;;;;;;;;;;16.40;99.90;;;;;;5085265;28;19920;-73
2023/09/19 02:39:35;;;;;;;;;;;16.40;99.90;;;;;;5083790;28;19927;-72
2023/09/19 02:42:03;;;;;;;;;;;16.40;99.90;;;;;;5085312;28;19973;-71
2023/09/19 02:44:30;;;;;;;;;;;16.40;99.90;;;;;;5083329;28;19920;-72
2023/09/19 02:46:57;;;;;;;;;;;16.30;99.90;;;;;;5084974;28;19995;-72
2023/09/19 02:49:24;;;;;;;;;;;16.30;99.90;;;;;;5085198;28;19920;-72
2023/09/19 02:51:52;;;;;;;;;;;16.30;99.90;;;;;;5085039;28;19921;-71
2023/09/19 02:54:19;;;;;;;;;;;16.30;99.90;;;;;;5084512;28;20233;-73
2023/09/19 02:56:47;;;;;;;;;;;16.30;99.90;;;;;;5084988;28;19929;-72
2023/09/19 02:59:14;;;;;;;;;;;16.20;99.90;;;;;;5084932;28;19920;-72
2023/09/19 03:01:41;;;;;;;;;;;16.20;99.90;;;;;;5084686;28;19920;-72
2023/09/19 03:04:08;;;;;;;;;;;16.30;99.90;;;;;;5085941;28;19920;-73
2023/09/19 03:06:35;;;;;;;;;;;16.20;99.90;;;;;;5083815;28;19920;-72
2023/09/19 03:09:05;;;;;;;;;;;16.20;99.90;;;;;;5084807;28;19966;-73
2023/09/19 03:11:33;;;;;;;;;;;16.10;99.90;;;;;;5084941;28;20129;-73
2023/09/19 03:13:59;;;;;;;;;;;16.20;99.90;;;;;;5084759;28;19966;-72
2023/09/19 03:16:26;;;;;;;;;;;16.10;99.90;;;;;;5084356;28;19924;-70
2023/09/19 03:18:53;;;;;;;;;;;16.20;99.90;;;;;;5084636;28;19987;-73
2023/09/19 03:21:21;;;;;;;;;;;16.10;99.90;;;;;;5083796;28;19987;-73
2023/09/19 03:23:48;;;;;;;;;;;16.20;99.90;;;;;;5084446;28;19952;-73
2023/09/19 03:26:16;;;;;;;;;;;16.20;99.90;;;;;;5083716;28;19963;-73
2023/09/19 03:28:43;;;;;;;;;;;16.20;99.90;;;;;;5090969;28;20251;-73
2023/09/19 03:31:10;;;;;;;;;;;16.20;99.90;;;;;;5084424;28;20156;-72
2023/09/19 03:33:37;;;;;;;;;;;16.10;99.90;;;;;;5084478;28;19939;-71
2023/09/19 03:36:05;;;;;;;;;;;16.20;99.90;;;;;;5082728;28;19920;-73
2023/09/19 03:38:32;;;;;;;;;;;16.20;99.90;;;;;;5083757;28;19920;-72
2023/09/19 03:40:58;;;;;;;;;;;16.20;99.90;;;;;;5082976;28;19920;-73
2023/09/19 03:43:26;;;;;;;;;;;16.20;99.90;;;;;;5084263;28;20161;-71
2023/09/19 03:45:54;;;;;;;;;;;16.10;99.90;;;;;;5083266;28;20257;-73
2023/09/19 03:48:21;;;;;;;;;;;16.10;99.90;;;;;;5083722;28;20000;-73
2023/09/19 03:50:48;;;;;;;;;;;16.20;99.90;;;;;;5084128;28;19924;-73
2023/09/19 03:53:15;;;;;;;;;;;16.10;99.90;;;;;;5083914;28;19984;-73
2023/09/19 03:55:41;;;;;;;;;;;16.20;99.90;;;;;;5083575;28;20149;-73
2023/09/19 03:58:08;;;;;;;;;;;16.20;99.90;;;;;;5083776;28;19920;-73
2023/09/19 04:00:36;;;;;;;;;;;16.20;99.90;;;;;;5088414;28;20229;-73
2023/09/19 04:03:06;;;;;;;;;;;16.20;99.90;;;;;;5083916;28;19988;-73
2023/09/19 04:05:32;;;;;;;;;;;16.10;99.90;;;;;;5083275;28;19920;-72
2023/09/19 04:07:59;;;;;;;;;;;16.10;99.90;;;;;;5083706;28;19991;-72
2023/09/19 04:10:25;;;;;;;;;;;16.10;99.90;;;;;;5095235;28;19927;-72
2023/09/19 04:12:53;;;;;;;;;;;16.20;99.90;;;;;;5097157;28;19920;-72
2023/09/19 04:15:22;;;;;;;;;;;16.10;99.90;;;;;;5083166;28;20259;-72
2023/09/19 04:17:50;;;;;;;;;;;16.10;99.90;;;;;;5083860;28;19980;-72
2023/09/19 04:20:18;;;;;;;;;;;16.20;99.90;;;;;;5085339;28;20206;-72
2023/09/19 04:22:45;;;;;;;;;;;16.20;99.90;;;;;;5083801;28;19921;-72
2023/09/19 04:25:11;;;;;;;;;;;16.20;99.90;;;;;;5082842;28;20266;-72
2023/09/19 04:27:38;;;;;;;;;;;16.30;99.90;;;;;;5079374;28;19925;-71
2023/09/19 04:30:10;;;;;;;;;;;16.30;99.90;;;;;;5083665;28;19987;-72
2023/09/19 04:32:38;;;;;;;;;;;16.30;99.90;;;;;;5086277;28;19920;-74
2023/09/19 04:35:08;;;;;;;;;;;16.20;99.90;;;;;;5084106;28;20117;-73
2023/09/19 04:37:37;;;;;;;;;;;16.20;99.90;;;;;;5086601;28;19921;-73
2023/09/19 04:40:06;;;;;;;;;;;16.20;99.90;;;;;;5082219;28;19926;-72
2023/09/19 04:42:32;;;;;;;;;;;16.20;99.90;;;;;;5083406;28;19927;-73
2023/09/19 04:44:59;;;;;;;;;;;16.20;99.90;;;;;;5086116;28;19927;-73
2023/09/19 04:47:26;;;;;;;;;;;16.20;99.90;;;;;;5083200;28;19921;-73
2023/09/19 04:49:52;;;;;;;;;;;16.20;99.90;;;;;;5083452;28;19987;-73
2023/09/19 04:52:20;;;;;;;;;;;16.20;99.90;;;;;;5084309;28;19984;-74
2023/09/19 04:54:48;;;;;;;;;;;16.20;99.90;;;;;;5086340;28;19967;-73
2023/09/19 04:57:15;;;;;;;;;;;16.20;99.90;;;;;;5089745;28;19966;-74
2023/09/19 04:59:41;;;;;;;;;;;16.20;99.90;;;;;;5084694;28;19924;-74
2023/09/19 05:02:09;;;;;;;;;;;16.20;99.90;;;;;;5081642;28;19928;-74
2023/09/19 05:04:36;;;;;;;;;;;16.20;99.90;;;;;;5081620;28;20294;-74
2023/09/19 05:07:03;;;;;;;;;;;16.20;99.90;;;;;;5082138;28;19959;-74
2023/09/19 05:09:34;;;;;;;;;;;16.30;99.90;;;;;;5083131;28;19925;-74
2023/09/19 05:12:00;;;;;;;;;;;16.30;99.90;;;;;;5081028;28;19943;-73
2023/09/19 05:14:27;;;;;;;;;;;16.30;99.90;;;;;;5082769;28;19920;-73
2023/09/19 05:16:53;;;;;;;;;;;16.30;99.90;;;;;;5079207;28;19954;-74
2023/09/19 05:19:20;;;;;;;;;;;16.30;99.90;;;;;;5082668;28;19984;-74
2023/09/19 05:21:48;;;;;;;;;;;16.30;99.90;;;;;;5086735;28;20390;-72
2023/09/19 05:24:16;;;;;;;;;;;16.30;99.90;;;;;;5076902;28;19928;-73
2023/09/19 05:26:45;;;;;;;;;;;16.30;99.90;;;;;;5082129;28;19927;-72
2023/09/19 05:29:12;;;;;;;;;;;16.30;99.90;;;;;;5090260;28;19927;-73
2023/09/19 05:31:40;;;;;;;;;;;16.30;99.90;;;;;;5078063;28;19927;-73
2023/09/19 05:34:07;;;;;;;;;;;16.20;99.90;;;;;;5079896;28;19956;-73
2023/09/19 05:36:34;;;;;;;;;;;16.20;99.90;;;;;;5082569;28;19960;-73
2023/09/19 05:39:00;;;;;;;;;;;16.20;99.90;;;;;;5082499;28;19966;-73
2023/09/19 05:41:27;;;;;;;;;;;16.20;99.90;;;;;;5088774;28;19962;-74
2023/09/19 05:43:55;;;;;;;;;;;16.20;99.90;;;;;;5091164;28;19920;-74
2023/09/19 05:46:22;;;;;;;;;;;16.20;99.90;;;;;;5088437;28;19921;-73
2023/09/19 05:48:49;;;;;;;;;;;16.20;99.90;;;;;;5086567;28;19928;-74
2023/09/19 05:51:17;;;;;;;;;;;16.20;99.90;;;;;;5086147;28;19983;-73
2023/09/19 05:53:44;;;;;;;;;;;16.20;99.90;;;;;;5086657;28;19920;-73
2023/09/19 05:56:11;;;;;;;;;;;16.20;99.90;;;;;;5085758;28;19920;-73
2023/09/19 05:58:38;;;;;;;;;;;16.20;99.90;;;;;;5080121;28;19920;-73
2023/09/19 06:01:07;;;;;;;;;;;16.20;99.90;;;;;;5079784;28;19960;-73
2023/09/19 06:03:35;;;;;;;;;;;16.20;99.90;;;;;;5086787;28;19928;-73
2023/09/19 06:06:02;;;;;;;;;;;16.20;99.90;;;;;;5084606;28;19959;-74
2023/09/19 06:08:29;;;;;;;;;;;16.20;99.90;;;;;;5084600;28;19920;-73
2023/09/19 06:10:55;;;;;;;;;;;16.20;99.90;;;;;;5086054;28;19943;-73
2023/09/19 06:13:23;;;;;;;;;;;16.20;99.90;;;;;;5084624;28;19988;-73
2023/09/19 06:15:50;;;;;;;;;;;16.20;99.90;;;;;;5082525;28;19999;-73
2023/09/19 06:18:19;;;;;;;;;;;16.20;99.90;;;;;;5085019;28;20145;-73
2023/09/19 06:20:46;;;;;;;;;;;16.20;99.90;;;;;;5089109;28;19978;-73
2023/09/19 06:23:13;;;;;;;;;;;16.20;99.90;;;;;;5085966;28;19978;-73
2023/09/19 06:25:40;;;;;;;;;;;16.20;99.90;;;;;;5088603;28;19958;-73
2023/09/19 06:28:08;;;;;;;;;;;16.30;99.90;;;;;;5084410;28;19921;-74
2023/09/19 06:30:35;;;;;;;;;;;16.30;99.90;;;;;;5085000;28;19975;-73
2023/09/19 06:33:03;;;;;;;;;;;16.30;99.90;;;;;;5083594;28;20276;-73
2023/09/19 06:35:32;;;;;;;;;;;16.40;99.90;;;;;;5083701;28;19970;-73
2023/09/19 06:37:59;;;;;;;;;;;16.40;99.90;;;;;;5084617;28;19926;-74
2023/09/19 06:40:27;;;;;;;;;;;16.40;99.90;;;;;;5084883;28;19952;-73
2023/09/19 06:42:55;;;;;;;;;;;16.40;99.90;;;;;;5085413;28;19955;-73
2023/09/19 06:45:22;;;;;;;;;;;16.40;99.90;;;;;;5084823;28;20152;-73
2023/09/19 06:47:50;;;;;;;;;;;16.40;99.90;;;;;;5084815;28;20225;-74
2023/09/19 06:50:18;;;;;;;;;;;16.40;99.90;;;;;;5081719;28;20152;-73
2023/09/19 06:52:49;;;;;;;;;;;16.40;99.90;;;;;;5085052;28;19927;-73
2023/09/19 06:55:17;;;;;;;;;;;16.50;99.90;;;;;;5080816;28;19927;-73
2023/09/19 06:57:44;;;;;;;;;;;16.60;99.90;;;;;;5085244;28;19926;-73
2023/09/19 07:00:15;;;;;;;;;;;16.70;99.90;;;;;;5083041;28;19935;-73
2023/09/19 07:02:42;;;;;;;;;;;16.80;99.90;;;;;;5081138;28;19927;-73
2023/09/19 07:05:09;;;;;;;;;;;16.90;99.90;;;;;;5084507;28;19928;-73
2023/09/19 07:07:36;;;;;;;;;;;17.00;99.90;;;;;;5084457;28;20211;-73
2023/09/19 07:10:05;;;;;;;;;;;17.10;99.90;;;;;;5084096;28;19968;-73
2023/09/19 07:12:32;;;;;;;;;;;17.10;99.90;;;;;;5081789;28;19992;-73
2023/09/19 07:14:59;;;;;;;;;;;17.10;99.90;;;;;;5083066;28;19920;-74
2023/09/19 07:17:26;;;;;;;;;;;17.10;99.90;;;;;;5088544;28;19951;-73
2023/09/19 07:19:52;;;;;;;;;;;17.10;99.90;;;;;;5083439;28;19983;-73
2023/09/19 07:22:19;;;;;;;;;;;17.00;99.90;;;;;;5083526;28;19951;-73
2023/09/19 07:24:46;;;;;;;;;;;17.10;99.90;;;;;;5087002;28;19942;-73
2023/09/19 07:27:14;;;;;;;;;;;17.10;99.90;;;;;;5087488;28;20149;-73
2023/09/19 07:29:41;;;;;;;;;;;17.20;99.90;;;;;;5081694;28;19990;-73
2023/09/19 07:32:10;;;;;;;;;;;17.10;99.90;;;;;;5087511;28;19920;-73
2023/09/19 07:34:36;;;;;;;;;;;17.20;99.90;;;;;;5082262;28;19962;-73
2023/09/19 07:37:03;;;;;;;;;;;17.30;99.90;;;;;;5082217;28;19995;-73
2023/09/19 07:39:30;;;;;;;;;;;17.30;99.90;;;;;;5083735;28;19927;-73
2023/09/19 07:41:57;;;;;;;;;;;17.30;99.90;;;;;;5082971;28;19927;-73
2023/09/19 07:44:25;;;;;;;;;;;17.40;99.90;;;;;;5082346;28;19943;-73
2023/09/19 07:46:53;;;;;;;;;;;17.40;99.90;;;;;;5082480;28;19920;-73
2023/09/19 07:49:20;;;;;;;;;;;17.50;99.90;;;;;;5080511;28;19927;-73
2023/09/19 07:51:46;;;;;;;;;;;17.50;99.90;;;;;;5083207;28;20147;-72
2023/09/19 07:54:14;;;;;;;;;;;17.60;99.90;;;;;;5082802;28;19979;-73
2023/09/19 07:56:41;;;;;;;;;;;17.50;99.90;;;;;;5088710;28;19924;-73
2023/09/19 07:59:08;;;;;;;;;;;17.50;99.90;;;;;;5084970;28;19991;-73
2023/09/19 08:01:37;;;;;;;;;;;17.50;99.90;;;;;;5083404;28;19933;-73
2023/09/19 08:04:03;;;;;;;;;;;17.50;99.90;;;;;;5084255;28;19928;-73
2023/09/19 08:06:30;;;;;;;;;;;17.50;99.90;;;;;;5077627;28;19988;-73
2023/09/19 08:09:00;;;;;;;;;;;17.50;99.90;;;;;;5082489;28;19925;-73
2023/09/19 08:11:30;;;;;;;;;;;17.40;99.90;;;;;;5086762;28;19920;-73
2023/09/19 08:13:58;;;;;;;;;;;17.40;99.90;;;;;;5082748;28;19928;-75
2023/09/19 08:16:24;;;;;;;;;;;17.40;99.90;;;;;;5083287;28;19920;-74
2023/09/19 08:18:55;;;;;;;;;;;17.30;99.90;;;;;;5082551;28;19983;-73
2023/09/19 08:21:23;;;;;;;;;;;17.30;99.90;;;;;;5082965;28;19920;-74
2023/09/19 08:23:50;;;;;;;;;;;17.30;99.90;;;;;;5082967;28;20145;-73
2023/09/19 08:26:17;;;;;;;;;;;17.30;99.90;;;;;;5082368;28;19979;-73
2023/09/19 08:28:43;;;;;;;;;;;17.30;99.90;;;;;;5087139;28;19920;-74
2023/09/19 08:31:10;;;;;;;;;;;17.40;99.90;;;;;;5086268;28;19966;-74
2023/09/19 08:33:37;;;;;;;;;;;17.40;99.90;;;;;;5082328;28;19921;-74
2023/09/19 08:36:05;;;;;;;;;;;17.50;99.90;;;;;;5082523;28;19928;-73
2023/09/19 08:38:33;;;;;;;;;;;17.60;99.90;;;;;;5081884;28;20148;-73
2023/09/19 08:41:00;;;;;;;;;;;17.70;99.90;;;;;;5084517;28;19972;-71
2023/09/19 08:43:26;;;;;;;;;;;17.80;99.90;;;;;;5084544;28;19958;-73
2023/09/19 08:45:58;;;;;;;;;;;17.90;99.90;;;;;;5082844;28;19920;-72
2023/09/19 08:48:28;;;;;;;;;;;18.00;99.90;;;;;;5087018;28;19921;-74
2023/09/19 08:50:57;;;;;;;;;;;17.90;99.90;;;;;;5085924;28;19991;-72
2023/09/19 08:53:31;;;;;;;;;;;18.00;99.90;;;;;;5086867;28;19924;-73
2023/09/19 08:56:01;;;;;;;;;;;17.90;99.90;;;;;;5083850;28;20228;-73
2023/09/19 08:58:33;;;;;;;;;;;17.90;99.90;;;;;;5090464;28;19920;-73
2023/09/19 09:01:01;;;;;;;;;;;17.90;99.90;;;;;;5085597;28;19921;-73
2023/09/19 09:03:30;;;;;;;;;;;17.80;99.90;;;;;;5087352;28;19921;-73
2023/09/19 09:05:57;;;;;;;;;;;17.70;99.90;;;;;;5082768;28;19956;-73
2023/09/19 09:08:24;;;;;;;;;;;17.70;99.90;;;;;;5082718;28;20214;-73
2023/09/19 09:10:53;;;;;;;;;;;17.70;99.90;;;;;;5083188;28;19983;-73
2023/09/19 09:13:21;;;;;;;;;;;17.70;99.90;;;;;;5082970;28;19944;-73
2023/09/19 09:15:48;;;;;;;;;;;17.80;99.90;;;;;;5082474;28;19927;-73
2023/09/19 09:18:15;;;;;;;;;;;17.70;99.90;;;;;;5079920;28;19987;-73
2023/09/19 09:20:44;;;;;;;;;;;17.70;99.90;;;;;;5087055;28;19921;-74
2023/09/19 09:23:10;;;;;;;;;;;17.60;99.90;;;;;;5086597;28;20207;-73
2023/09/19 09:26:02;;;;;;;;;;;17.70;99.90;;;;;;5085928;28;19980;-73
2023/09/19 09:28:30;;;;;;;;;;;17.70;99.90;;;;;;5086659;28;19927;-74
2023/09/19 09:30:57;;;;;;;;;;;17.70;99.90;;;;;;5086086;28;19928;-73
2023/09/19 09:33:24;;;;;;;;;;;17.80;99.90;;;;;;5086517;28;19924;-74
2023/09/19 09:35:52;;;;;;;;;;;17.80;99.90;;;;;;5089032;28;20228;-74
2023/09/19 09:38:19;;;;;;;;;;;17.80;99.90;;;;;;5086459;28;19928;-73
2023/09/19 09:40:48;;;;;;;;;;;17.80;99.90;;;;;;5086138;28;19952;-73
2023/09/19 09:43:27;;;;;;;;;;;17.90;99.90;;;;;;5083071;28;20218;-73
2023/09/19 09:46:18;;;;;;;;;;;17.90;99.90;;;;;;5089758;28;19921;-74
2023/09/19 09:48:51;;;;;;;;;;;17.80;99.90;;;;;;5082499;28;19921;-73
2023/09/19 09:51:30;;;;;;;;;;;17.90;99.90;;;;;;5083396;28;19920;-72
2023/09/19 09:54:12;;;;;;;;;;;18.00;99.90;;;;;;5090994;28;19920;-73
2023/09/19 09:56:52;;;;;;;;;;;18.10;99.90;;;;;;5086087;28;19920;-73
2023/09/19 09:59:24;;;;;;;;;;;18.20;99.90;;;;;;5085949;28;19962;-73
2023/09/19 10:01:53;;;;;;;;;;;18.20;99.90;;;;;;5086052;28;19979;-73
2023/09/19 10:04:28;;;;;;;;;;;18.30;99.90;;;;;;5085733;28;19963;-73
2023/09/19 10:06:55;;;;;;;;;;;18.30;99.90;;;;;;5086295;28;19927;-74
2023/09/19 10:09:29;;;;;;;;;;;18.40;99.90;;;;;;5085642;28;19991;-73
2023/09/19 10:12:03;;;;;;;;;;;18.60;99.90;;;;;;5085722;28;20004;-72
2023/09/19 10:14:34;;;;;;;;;;;18.60;99.90;;;;;;5085925;28;19983;-73
2023/09/19 10:17:05;;;;;;;;;;;18.70;99.90;;;;;;5085710;28;19927;-73
2023/09/19 10:19:37;;;;;;;;;;;18.60;99.90;;;;;;5085997;28;19920;-74
2023/09/19 10:22:05;;;;;;;;;;;18.60;99.90;;;;;;5085886;28;19979;-73
2023/09/19 10:24:34;;;;;;;;;;;18.60;99.90;;;;;;5085618;28;19922;-73
2023/09/19 10:27:02;;;;;;;;;;;18.70;99.90;;;;;;5085477;28;20281;-74
2023/09/19 10:29:31;;;;;;;;;;;18.70;99.90;;;;;;5089900;28;19983;-73
2023/09/19 10:31:59;;;;;;;;;;;18.80;99.90;;;;;;5085406;28;19921;-74
2023/09/19 10:34:27;;;;;;;;;;;18.90;99.90;;;;;;5084976;28;19956;-74
2023/09/19 10:36:54;;;;;;;;;;;19.00;99.90;;;;;;5089432;28;19984;-73
2023/09/19 10:39:22;;;;;;;;;;;19.10;99.90;;;;;;5087298;28;19920;-74
2023/09/19 10:41:53;;;;;;;;;;;19.10;99.90;;;;;;5083222;28;20135;-74
2023/09/19 10:44:22;;;;;;;;;;;19.30;99.90;;;;;;5079195;28;19928;-74
2023/09/19 10:46:49;;;;;;;;;;;19.50;99.90;;;;;;5090261;28;19925;-74
2023/09/19 10:49:17;;;;;;;;;;;19.60;99.90;;;;;;5085289;28;20182;-73
2023/09/19 10:51:47;;;;;;;;;;;19.80;99.90;;;;;;5085174;28;19970;-73
2023/09/19 10:54:15;;;;;;;;;;;19.90;99.90;;;;;;5084490;28;20210;-73
2023/09/19 10:56:46;;;;;;;;;;;20.10;99.90;;;;;;5083663;28;19974;-73
2023/09/19 10:59:13;;;;;;;;;;;20.20;99.90;;;;;;5077647;28;19927;-73
2023/09/19 11:01:44;;;;;;;;;;;20.40;99.90;;;;;;5076491;28;19983;-73
2023/09/19 11:04:29;;;;;;;;;;;20.40;99.90;;;;;;5084822;28;19928;-73
2023/09/19 11:07:08;;;;;;;;;;;20.30;99.90;;;;;;5082241;28;19952;-73
2023/09/19 11:09:45;;;;;;;;;;;20.20;99.90;;;;;;5084235;28;20228;-73
2023/09/19 11:12:12;;;;;;;;;;;20.10;99.90;;;;;;5084855;28;19920;-73
2023/09/19 11:14:39;;;;;;;;;;;19.90;99.90;;;;;;5089671;28;19987;-72
2023/09/19 11:17:31;;;;;;;;;;;20.00;99.90;;;;;;5084311;28;19916;-73
2023/09/19 11:20:24;;;;;;;;;;;20.00;99.90;;;;;;5082063;28;19921;-73
2023/09/19 11:23:07;;;;;;;;;;;20.10;99.90;;;;;;5081188;28;19928;-72
2023/09/19 11:25:47;;;;;;;;;;;20.20;99.90;;;;;;5085004;28;20189;-73
2023/09/19 11:28:33;;;;;;;;;;;20.20;99.90;;;;;;5084865;28;20152;-74
2023/09/19 11:31:00;;;;;;;;;;;20.10;99.90;;;;;;5084220;28;20218;-71
2023/09/19 11:33:31;;;;;;;;;;;20.10;99.90;;;;;;5084694;28;20182;-72
2023/09/19 11:36:04;;;;;;;;;;;20.10;99.90;;;;;;5084159;28;19926;-72
2023/09/19 11:38:50;;;;;;;;;;;20.10;99.90;;;;;;5086479;28;19958;-73
2023/09/19 11:41:37;;;;;;;;;;;20.30;99.90;;;;;;5079751;28;20390;-72
2023/09/19 11:44:23;;;;;;;;;;;20.40;99.90;;;;;;5084057;28;19963;-73
2023/09/19 11:46:53;;;;;;;;;;;20.30;99.90;;;;;;5085603;28;19921;-74
2023/09/19 11:49:23;;;;;;;;;;;20.40;99.90;;;;;;5081529;28;19920;-73
2023/09/19 11:51:52;;;;;;;;;;;20.40;99.90;;;;;;5083756;28;19920;-74
2023/09/19 11:54:21;;;;;;;;;;;20.50;99.90;;;;;;5080912;28;19958;-73
2023/09/19 11:56:50;;;;;;;;;;;20.70;99.90;;;;;;5084077;28;19962;-75
2023/09/19 11:59:22;;;;;;;;;;;20.80;99.90;;;;;;5080826;28;20179;-74
2023/09/19 12:01:54;;;;;;;;;;;20.90;99.90;;;;;;5083696;28;19927;-74
2023/09/19 12:04:24;;;;;;;;;;;21.10;99.90;;;;;;5081395;28;19935;-73
2023/09/19 12:06:58;;;;;;;;;;;21.30;99.90;;;;;;5083744;28;19920;-72
2023/09/19 12:09:25;;;;;;;;;;;21.50;99.90;;;;;;5089892;28;19935;-73
2023/09/19 12:11:52;;;;;;;;;;;21.50;99.90;;;;;;5096624;28;19927;-74
2023/09/19 12:14:26;;;;;;;;;;;21.40;99.90;;;;;;5083504;28;19962;-74
2023/09/19 12:16:55;;;;;;;;;;;21.50;99.90;;;;;;5083711;28;19921;-73
2023/09/19 12:19:22;;;;;;;;;;;21.40;99.90;;;;;;5083659;28;19920;-73
2023/09/19 12:21:56;;;;;;;;;;;21.50;99.90;;;;;;5083195;28;20226;-73
2023/09/19 12:24:29;;;;;;;;;;;21.70;99.90;;;;;;5085610;28;19921;-72
2023/09/19 12:27:04;;;;;;;;;;;21.80;99.90;;;;;;5083399;28;19920;-73
2023/09/19 12:29:31;;;;;;;;;;;21.80;99.90;;;;;;5083578;28;19920;-73
2023/09/19 12:31:58;;;;;;;;;;;21.90;99.90;;;;;;5083492;28;19920;-73
2023/09/19 12:34:34;;;;;;;;;;;22.00;99.90;;;;;;5082964;28;19924;-74
2023/09/19 12:37:15;;;;;;;;;;;22.10;99.90;;;;;;5083378;28;19920;-73
2023/09/19 12:39:48;;;;;;;;;;;22.10;99.90;;;;;;5081204;28;19979;-73
2023/09/19 12:42:15;;;;;;;;;;;22.30;99.90;;;;;;5083282;28;19925;-72
2023/09/19 12:44:43;;;;;;;;;;;22.30;99.90;;;;;;5083183;28;19962;-72
2023/09/19 12:47:11;;;;;;;;;;;22.50;99.90;;;;;;5083158;28;20565;-73
2023/09/19 12:49:58;;;;;;;;;;;22.40;99.90;;;;;;5083027;28;20210;-73
2023/09/19 12:52:26;;;;;;;;;;;22.50;99.90;;;;;;5083577;28;20177;-74
2023/09/19 12:54:52;;;;;;;;;;;22.40;99.90;;;;;;5087285;28;19979;-72
2023/09/19 12:57:25;;;;;;;;;;;22.20;99.90;;;;;;5087491;28;19920;-74
2023/09/19 12:59:52;;;;;;;;;;;22.30;99.90;;;;;;5087078;28;19928;-73
2023/09/19 13:02:23;;;;;;;;;;;22.40;99.90;;;;;;5081722;28;19920;-74
2023/09/19 13:04:53;;;;;;;;;;;22.50;99.90;;;;;;5088978;28;19920;-74
2023/09/19 13:07:34;;;;;;;;;;;22.50;99.90;;;;;;5078682;28;20160;-73
2023/09/19 13:10:08;;;;;;;;;;;22.40;99.90;;;;;;5085077;28;19920;-73
2023/09/19 13:12:36;;;;;;;;;;;22.30;99.90;;;;;;5087021;28;19920;-74
2023/09/19 13:15:13;;;;;;;;;;;22.30;99.90;;;;;;5086749;28;19927;-74
2023/09/19 13:17:46;;;;;;;;;;;22.20;99.90;;;;;;5082118;28;19939;-71
2023/09/19 13:20:24;;;;;;;;;;;22.40;99.90;;;;;;5086590;28;20261;-73
2023/09/19 13:22:53;;;;;;;;;;;22.30;99.90;;;;;;5084068;28;19979;-73
2023/09/19 13:25:22;;;;;;;;;;;22.50;99.90;;;;;;5083816;28;19920;-73
2023/09/19 13:27:51;;;;;;;;;;;22.60;99.90;;;;;;5086687;28;19975;-73
2023/09/19 13:30:18;;;;;;;;;;;22.80;99.90;;;;;;5091802;28;19921;-73
2023/09/19 13:32:46;;;;;;;;;;;22.90;99.90;;;;;;5090932;28;20237;-73
2023/09/19 13:35:13;;;;;;;;;;;23.00;99.90;;;;;;5086564;28;19920;-74
2023/09/19 13:37:42;;;;;;;;;;;23.20;99.90;;;;;;5086668;28;19920;-72
2023/09/19 13:40:09;;;;;;;;;;;23.40;99.90;;;;;;5086339;28;19920;-73
2023/09/19 13:42:37;;;;;;;;;;;23.60;99.90;;;;;;5091704;28;19955;-73
2023/09/19 13:45:04;;;;;;;;;;;23.50;99.90;;;;;;5089497;28;19994;-73
2023/09/19 13:47:32;;;;;;;;;;;23.50;99.90;;;;;;5082790;28;20220;-73
2023/09/19 13:49:59;;;;;;;;;;;23.50;99.90;;;;;;5079450;28;19973;-73
2023/09/19 13:52:27;;;;;;;;;;;23.60;99.90;;;;;;5080419;28;19952;-73
2023/09/19 13:54:56;;;;;;;;;;;23.70;99.90;;;;;;5083702;28;19920;-73
2023/09/19 13:57:23;;;;;;;;;;;23.70;99.90;;;;;;5085976;28;20210;-72
2023/09/19 13:59:52;;;;;;;;;;;23.50;99.90;;;;;;5085872;28;19922;-73
2023/09/19 14:02:19;;;;;;;;;;;23.20;99.90;;;;;;5089435;28;20156;-73
2023/09/19 14:04:45;;;;;;;;;;;23.20;99.90;;;;;;5084535;28;20145;-74
2023/09/19 14:07:12;;;;;;;;;;;23.20;99.90;;;;;;5091206;28;19984;-72
2023/09/19 14:09:38;;;;;;;;;;;23.30;99.90;;;;;;5085804;28;19966;-71
2023/09/19 14:12:05;;;;;;;;;;;23.30;99.90;;;;;;5085534;28;19943;-72
2023/09/19 14:14:33;;;;;;;;;;;23.30;99.90;;;;;;5085122;28;19943;-72
2023/09/19 14:17:01;;;;;;;;;;;23.00;99.90;;;;;;5085348;28;19955;-73
2023/09/19 14:19:28;;;;;;;;;;;23.10;99.90;;;;;;5079118;28;20241;-72
2023/09/19 14:21:56;;;;;;;;;;;23.00;99.90;;;;;;5083148;28;19920;-72
2023/09/19 14:24:22;;;;;;;;;;;22.90;99.90;;;;;;5081830;28;19927;-73
2023/09/19 14:26:50;;;;;;;;;;;23.00;99.90;;;;;;5086827;28;19967;-72